CheckWX is a tool to help pilots better visualize weather data.  It is not intended as a substitute for an official pre-flight weather briefing.

06:51:57 UTC

WALL TAF
Sultan Aji Muhamad Sulaiman Airport
Kotamadya Balikpapan, Indonesia
TAF WALL 170500Z 1706/1812 23005KT 9999 FEW017CB SCT018 BECMG 1709/1711 SCT018 PROB30 TEMPO 1721/1724 32003KT 8000 -RA FEW017CB SCT018

Jun-17@
06:00 UTC

Jun-17 @ 06:00 UTC

Jun-17@
09:00 UTC

Jun-17 @ 09:00 UTC

TAF WALL 170500Z 1706/1812 23005KT 9999 FEW017CB SCT018
Wind
  • 230° at 5 KTS
Cloud Levels
  • Few at 1,700' AGL
  • Scattered at 1,800' AGL

Jun-17@
09:00 UTC

Jun-17 @ 09:00 UTC

Jun-18@
12:00 UTC

Jun-18 @ 12:00 UTC

BECMG 1709/1711 SCT018

Becoming

Becoming Conditions expected by Mon, Jun 17, 2019 @ 11:00 UTC

Wind
  • 230° at 5 KTS
Cloud Levels
  • Scattered at 1,800' AGL

Jun-17@
21:00 UTC

Jun-17 @ 21:00 UTC

Jun-18@
00:00 UTC

Jun-18 @ 00:00 UTC

PROB30 TEMPO 1721/1724 32003KT 8000 -RA FEW017CB SCT018

Temporary - 30% Likelihood

Temporary - 30% Likelihood during this time.

Wind
  • 320° at 3 KTS
Conditions
Light Rain
Cloud Levels
  • Few at 1,700' AGL
  • Scattered at 1,800' AGL